Time;durP1;ratioP1;P1;durP2;ratioP2;P2;SDS_P1;SDS_P2;PMS_P1;PMS_P2;Temp;Humidity;BMP_temperature;BMP_pressure;BME280_temperature;BME280_humidity;BME280_pressure;Samples;Min_cycle;Max_cycle;Signal;HPM_P1;HPM_P2
2021/06/13 00:02:00;;;;;;;6.47;5.87;;;17.40;99.90;;;;;;5050057;28;20486;-69
2021/06/13 00:04:26;;;;;;;5.97;5.37;;;17.40;99.90;;;;;;5050061;28;20971;-69
2021/06/13 00:06:53;;;;;;;6.60;5.93;;;17.40;99.90;;;;;;5050289;28;20455;-69
2021/06/13 00:09:20;;;;;;;7.30;5.60;;;17.30;99.90;;;;;;5050184;28;20467;-69
2021/06/13 00:11:48;;;;;;;6.70;6.10;;;17.30;99.90;;;;;;5049994;28;20521;-69
2021/06/13 00:14:16;;;;;;;6.47;5.83;;;17.30;99.90;;;;;;5050367;28;20505;-69
2021/06/13 00:16:42;;;;;;;6.70;6.10;;;17.30;99.90;;;;;;5049814;28;20533;-69
2021/06/13 00:19:09;;;;;;;6.20;5.63;;;17.30;99.90;;;;;;5050624;28;20459;-70
2021/06/13 00:21:35;;;;;;;6.43;5.80;;;17.30;99.90;;;;;;5049689;28;20463;-69
2021/06/13 00:24:01;;;;;;;7.53;6.73;;;17.30;99.90;;;;;;5050067;28;20998;-70
2021/06/13 00:26:28;;;;;;;8.40;6.00;;;17.30;99.90;;;;;;5050393;28;20459;-69
2021/06/13 00:28:55;;;;;;;6.97;6.17;;;17.30;99.90;;;;;;5049660;28;20466;-69
2021/06/13 00:31:22;;;;;;;6.43;5.83;;;17.40;99.90;;;;;;5050909;28;20459;-69
2021/06/13 00:33:48;;;;;;;6.63;5.40;;;17.40;99.90;;;;;;5053474;28;20487;-70
2021/06/13 00:36:15;;;;;;;7.40;5.57;;;17.40;99.90;;;;;;5054285;28;20485;-69
2021/06/13 00:38:41;;;;;;;6.80;6.13;;;17.40;99.90;;;;;;5054020;28;20483;-69
2021/06/13 00:41:08;;;;;;;6.20;5.70;;;17.50;99.90;;;;;;5053230;28;20829;-69
2021/06/13 00:43:34;;;;;;;6.80;5.83;;;17.40;99.90;;;;;;5053990;28;20475;-69
2021/06/13 00:46:02;;;;;;;6.00;5.50;;;17.50;99.90;;;;;;5053492;28;20966;-69
2021/06/13 00:48:28;;;;;;;7.17;6.00;;;17.50;99.90;;;;;;5053878;28;20487;-69
2021/06/13 00:50:55;;;;;;;6.13;5.57;;;17.50;99.90;;;;;;5053464;28;20463;-68
2021/06/13 00:53:22;;;;;;;9.00;6.00;;;17.50;99.90;;;;;;5053454;28;20486;-68
2021/06/13 00:55:48;;;;;;;7.43;5.77;;;17.50;99.90;;;;;;5053898;28;20489;-69
2021/06/13 00:58:15;;;;;;;5.90;5.40;;;17.50;99.90;;;;;;5053339;28;20482;-69
2021/06/13 01:00:43;;;;;;;7.70;5.93;;;17.60;99.90;;;;;;5053481;28;20463;-69
2021/06/13 01:03:11;;;;;;;6.73;6.00;;;17.60;99.90;;;;;;5053447;28;20479;-69
2021/06/13 01:05:38;;;;;;;6.50;5.87;;;17.50;99.90;;;;;;5053172;28;20463;-69
2021/06/13 01:08:12;;;;;;;7.20;6.60;;;17.50;99.90;;;;;;5053309;28;20456;-69
2021/06/13 01:10:46;;;;;;;6.23;5.73;;;17.50;99.90;;;;;;5053052;28;20458;-69
2021/06/13 01:13:18;;;;;;;6.80;6.10;;;17.50;99.90;;;;;;5053387;28;20870;-69
2021/06/13 01:15:51;;;;;;;5.60;5.00;;;17.60;99.90;;;;;;5053468;28;20459;-69
2021/06/13 01:18:25;;;;;;;9.37;6.13;;;17.60;99.90;;;;;;5052803;28;21192;-69
2021/06/13 01:20:55;;;;;;;7.13;5.30;;;17.50;99.90;;;;;;5052848;28;20469;-69
2021/06/13 01:23:43;;;;;;;6.63;5.93;;;17.50;99.90;;;;;;5052935;28;20490;-69
2021/06/13 01:26:51;;;;;;;8.10;5.90;;;17.50;99.90;;;;;;5053346;28;20598;-69
2021/06/13 01:29:24;;;;;;;6.17;5.57;;;17.40;99.90;;;;;;5052963;28;20459;-68
2021/06/13 01:31:54;;;;;;;7.00;6.07;;;17.40;99.90;;;;;;5052525;28;20997;-70
2021/06/13 01:34:25;;;;;;;7.90;6.27;;;17.40;99.90;;;;;;5053076;28;21014;-69
2021/06/13 01:36:53;;;;;;;8.37;6.07;;;17.40;99.90;;;;;;5052546;28;20934;-69
2021/06/13 01:39:23;;;;;;;7.07;6.37;;;17.40;99.90;;;;;;5052994;28;20873;-69
2021/06/13 01:41:51;;;;;;;8.27;5.63;;;17.40;99.90;;;;;;5051998;28;20849;-69
2021/06/13 01:44:18;;;;;;;5.83;5.23;;;17.30;99.90;;;;;;5052215;28;20467;-68
2021/06/13 01:46:48;;;;;;;8.23;5.97;;;17.30;99.90;;;;;;5052631;28;20971;-70
2021/06/13 01:49:15;;;;;;;5.90;5.30;;;17.30;99.90;;;;;;5052409;28;20463;-69
2021/06/13 01:51:42;;;;;;;6.87;5.90;;;17.20;99.90;;;;;;5052377;28;20469;-69
2021/06/13 01:54:10;;;;;;;6.50;5.27;;;17.10;99.90;;;;;;5052385;28;20475;-69
2021/06/13 01:56:43;;;;;;;6.80;5.33;;;17.10;99.90;;;;;;5052432;28;20486;-68
2021/06/13 01:59:09;;;;;;;8.13;5.40;;;17.00;99.90;;;;;;5052509;28;20471;-69
2021/06/13 02:01:37;;;;;;;5.83;5.20;;;17.00;99.90;;;;;;5051903;28;20533;-69
2021/06/13 02:04:06;;;;;;;6.47;5.07;;;16.90;99.90;;;;;;5052217;28;20491;-70
2021/06/13 02:06:37;;;;;;;8.20;6.10;;;16.90;99.90;;;;;;5052183;28;20463;-68
2021/06/13 02:09:05;;;;;;;9.30;5.60;;;16.90;99.90;;;;;;5052094;28;20509;-69
2021/06/13 02:11:33;;;;;;;6.77;6.17;;;16.80;99.90;;;;;;5052025;28;20989;-68
2021/06/13 02:14:02;;;;;;;7.47;6.30;;;16.90;99.90;;;;;;5051739;28;20479;-68
2021/06/13 02:16:30;;;;;;;7.73;5.70;;;16.90;99.90;;;;;;5052371;28;20464;-69
2021/06/13 02:18:57;;;;;;;6.37;5.77;;;16.90;99.90;;;;;;5051697;28;20480;-68
2021/06/13 02:21:26;;;;;;;6.97;5.93;;;16.90;99.90;;;;;;5051865;28;20461;-69
2021/06/13 02:23:54;;;;;;;6.30;5.70;;;16.90;99.90;;;;;;5051912;28;21087;-69
2021/06/13 02:26:20;;;;;;;7.67;5.90;;;16.80;99.90;;;;;;5051662;28;20980;-69
2021/06/13 02:28:52;;;;;;;6.10;5.53;;;16.80;99.90;;;;;;5052020;28;20451;-68
2021/06/13 02:31:20;;;;;;;7.43;5.90;;;16.80;99.90;;;;;;5051497;28;20464;-69
2021/06/13 02:33:47;;;;;;;6.57;5.90;;;16.80;99.90;;;;;;5051570;28;20490;-68
2021/06/13 02:36:14;;;;;;;6.73;6.13;;;16.70;99.90;;;;;;5051931;28;20468;-68
2021/06/13 02:38:42;;;;;;;7.40;5.70;;;16.70;99.90;;;;;;5051359;28;20509;-69
2021/06/13 02:41:09;;;;;;;6.00;5.50;;;16.60;99.90;;;;;;5051457;28;20463;-68
2021/06/13 02:43:35;;;;;;;8.90;6.07;;;16.60;99.90;;;;;;5051446;28;20475;-69
2021/06/13 02:46:01;;;;;;;6.40;5.70;;;16.60;99.90;;;;;;5051466;28;20839;-69
2021/06/13 02:48:28;;;;;;;6.37;5.67;;;16.60;99.90;;;;;;5051573;28;20504;-69
2021/06/13 02:50:57;;;;;;;8.00;5.33;;;16.50;99.90;;;;;;5050707;28;20981;-68
2021/06/13 02:53:30;;;;;;;6.47;5.73;;;16.50;99.90;;;;;;5051459;28;20485;-68
2021/06/13 02:56:03;;;;;;;6.10;5.50;;;16.50;99.90;;;;;;5050214;28;20466;-69
2021/06/13 02:58:40;;;;;;;6.70;5.53;;;16.40;99.90;;;;;;5051343;28;20490;-68
2021/06/13 03:01:08;;;;;;;7.40;5.40;;;16.40;99.90;;;;;;5051135;28;20462;-69
2021/06/13 03:03:35;;;;;;;6.40;5.03;;;16.40;99.90;;;;;;5051030;28;20480;-69
2021/06/13 03:06:09;;;;;;;6.67;5.83;;;16.40;99.90;;;;;;5051221;28;20455;-69
2021/06/13 03:08:36;;;;;;;6.10;5.17;;;16.30;99.90;;;;;;5051047;28;20455;-69
2021/06/13 03:11:06;;;;;;;7.80;6.30;;;16.30;99.90;;;;;;5050749;28;20471;-69
2021/06/13 03:13:33;;;;;;;5.90;5.40;;;16.30;99.90;;;;;;5051241;28;20475;-69
2021/06/13 03:16:00;;;;;;;5.80;5.30;;;16.30;99.90;;;;;;5050801;28;20475;-69
2021/06/13 03:18:29;;;;;;;5.30;4.80;;;16.30;99.90;;;;;;5051162;28;20572;-68
2021/06/13 03:20:56;;;;;;;7.20;5.40;;;16.30;99.90;;;;;;5050298;28;20974;-68
2021/06/13 03:23:25;;;;;;;6.60;5.97;;;16.40;99.90;;;;;;5050969;28;20494;-69
2021/06/13 03:25:53;;;;;;;6.43;5.83;;;16.40;99.90;;;;;;5050847;28;20831;-69
2021/06/13 03:28:21;;;;;;;7.40;5.23;;;16.40;99.90;;;;;;5050608;28;20519;-68
2021/06/13 03:30:48;;;;;;;6.63;5.40;;;16.30;99.90;;;;;;5050541;28;20469;-68
2021/06/13 03:33:16;;;;;;;5.57;5.07;;;16.30;99.90;;;;;;5050526;28;20540;-68
2021/06/13 03:35:44;;;;;;;6.70;5.10;;;16.30;99.90;;;;;;5050799;28;20455;-69
2021/06/13 03:38:11;;;;;;;5.73;5.20;;;16.30;99.90;;;;;;5050812;28;20486;-68
2021/06/13 03:40:39;;;;;;;6.17;5.57;;;16.30;99.90;;;;;;5050361;28;20459;-68
2021/06/13 03:43:07;;;;;;;6.90;4.60;;;16.30;99.90;;;;;;5050559;28;20486;-69
2021/06/13 03:45:35;;;;;;;6.83;5.10;;;16.30;99.90;;;;;;5050414;28;20459;-69
2021/06/13 03:48:03;;;;;;;5.87;5.10;;;16.30;99.90;;;;;;5050376;28;20456;-69
2021/06/13 03:50:31;;;;;;;7.07;5.33;;;16.20;99.90;;;;;;5050721;28;20513;-68
2021/06/13 03:52:59;;;;;;;5.70;5.13;;;16.20;99.90;;;;;;5049677;28;20483;-69
2021/06/13 03:55:26;;;;;;;6.13;5.53;;;16.30;99.90;;;;;;5050699;28;20467;-68
2021/06/13 03:57:54;;;;;;;8.70;5.53;;;16.20;99.90;;;;;;5049949;28;20483;-69
2021/06/13 04:00:24;;;;;;;10.67;5.20;;;16.20;99.90;;;;;;5050558;28;20459;-69
2021/06/13 04:02:52;;;;;;;5.57;4.30;;;16.20;99.90;;;;;;5049999;28;20487;-68
2021/06/13 04:05:20;;;;;;;7.73;5.00;;;16.20;99.90;;;;;;5050076;28;20455;-69
2021/06/13 04:07:47;;;;;;;9.90;5.33;;;16.10;99.90;;;;;;5050054;28;20455;-69
2021/06/13 04:10:15;;;;;;;5.40;4.90;;;16.10;99.90;;;;;;5050311;28;20464;-67
2021/06/13 04:12:42;;;;;;;5.13;4.60;;;16.10;99.90;;;;;;5049911;28;20486;-69
2021/06/13 04:15:09;;;;;;;6.20;5.10;;;16.10;99.90;;;;;;5050340;28;20463;-68
2021/06/13 04:17:38;;;;;;;6.97;4.23;;;16.10;99.90;;;;;;5049837;28;20502;-69
2021/06/13 04:20:10;;;;;;;5.50;4.90;;;16.10;99.90;;;;;;5050246;28;20960;-69
2021/06/13 04:22:39;;;;;;;9.10;4.80;;;16.10;99.90;;;;;;5049527;28;20479;-68
2021/06/13 04:25:09;;;;;;;7.90;5.20;;;16.10;99.90;;;;;;5050055;28;20954;-68
2021/06/13 04:27:37;;;;;;;6.40;4.60;;;16.00;99.90;;;;;;5050635;28;20462;-69
2021/06/13 04:30:05;;;;;;;7.73;4.60;;;16.00;99.90;;;;;;5049740;28;20552;-69
2021/06/13 04:32:32;;;;;;;6.50;4.33;;;16.10;99.90;;;;;;5049732;28;20490;-69
2021/06/13 04:34:59;;;;;;;6.57;4.90;;;16.10;99.90;;;;;;5049862;28;20455;-68
2021/06/13 04:37:27;;;;;;;10.30;4.40;;;16.10;99.90;;;;;;5050070;28;20483;-69
2021/06/13 04:39:54;;;;;;;4.67;4.20;;;16.10;99.90;;;;;;5050075;28;20817;-68
2021/06/13 04:42:21;;;;;;;5.80;4.80;;;16.10;99.90;;;;;;5049528;28;20484;-68
2021/06/13 04:44:48;;;;;;;5.80;4.57;;;16.20;99.90;;;;;;5050004;28;20974;-69
2021/06/13 04:47:15;;;;;;;5.33;4.20;;;16.20;99.90;;;;;;5050151;28;20470;-69
2021/06/13 04:49:44;;;;;;;6.87;4.80;;;16.20;99.90;;;;;;5049730;28;20955;-68
2021/06/13 04:52:14;;;;;;;5.23;4.13;;;16.20;99.90;;;;;;5049711;28;20467;-68
2021/06/13 04:54:51;;;;;;;7.57;4.37;;;16.10;99.90;;;;;;5049665;28;20469;-69
2021/06/13 04:57:42;;;;;;;5.10;4.23;;;16.10;99.90;;;;;;5050147;28;20470;-69
2021/06/13 05:00:09;;;;;;;6.50;4.30;;;16.00;99.90;;;;;;5049684;28;20968;-69
2021/06/13 05:02:36;;;;;;;6.03;4.50;;;16.10;99.90;;;;;;5049578;28;20994;-69
2021/06/13 05:05:02;;;;;;;5.70;4.10;;;16.10;99.90;;;;;;5049858;28;20470;-69
2021/06/13 05:07:29;;;;;;;7.17;4.77;;;16.00;99.90;;;;;;5049551;28;20460;-69
2021/06/13 05:09:57;;;;;;;7.03;4.40;;;16.10;99.90;;;;;;5049711;28;21005;-69
2021/06/13 05:12:24;;;;;;;5.07;4.07;;;16.10;99.90;;;;;;5049281;28;20479;-69
2021/06/13 05:14:51;;;;;;;7.47;4.43;;;16.10;99.90;;;;;;5049582;28;20464;-69
2021/06/13 05:17:18;;;;;;;4.97;4.40;;;16.10;99.90;;;;;;5049861;28;20554;-69
2021/06/13 05:19:44;;;;;;;5.00;4.23;;;16.10;99.90;;;;;;5052206;28;20459;-69
2021/06/13 05:22:12;;;;;;;5.77;4.80;;;16.10;99.90;;;;;;5052935;28;20479;-69
2021/06/13 05:24:38;;;;;;;5.83;4.20;;;16.10;99.90;;;;;;5052991;28;20470;-69
2021/06/13 05:27:07;;;;;;;4.67;4.20;;;16.10;99.90;;;;;;5053095;28;20530;-69
2021/06/13 05:29:34;;;;;;;6.53;4.20;;;16.20;99.90;;;;;;5053266;28;20463;-69
2021/06/13 05:32:00;;;;;;;6.47;4.93;;;16.20;99.90;;;;;;5052179;28;20463;-69
2021/06/13 05:34:27;;;;;;;5.73;4.67;;;16.30;99.90;;;;;;5053163;28;20490;-69
2021/06/13 05:36:54;;;;;;;6.47;4.23;;;16.40;99.90;;;;;;5052787;28;20467;-68
2021/06/13 05:39:20;;;;;;;8.23;4.60;;;16.50;99.90;;;;;;5052827;28;20482;-69
2021/06/13 05:41:47;;;;;;;8.83;4.97;;;16.50;99.90;;;;;;5052562;28;20464;-69
2021/06/13 05:44:15;;;;;;;5.30;3.93;;;16.40;99.90;;;;;;5052563;28;20483;-68
2021/06/13 05:46:44;;;;;;;4.10;3.73;;;16.40;99.90;;;;;;5052793;28;20983;-70
2021/06/13 05:49:11;;;;;;;8.53;4.53;;;16.50;99.90;;;;;;5052928;28;20979;-69
2021/06/13 05:51:37;;;;;;;6.90;4.50;;;16.60;99.90;;;;;;5052217;28;20490;-68
2021/06/13 05:54:04;;;;;;;6.00;3.90;;;16.60;99.90;;;;;;5052451;28;20479;-69
2021/06/13 05:56:31;;;;;;;3.90;3.60;;;16.60;99.90;;;;;;5052350;28;20842;-69
2021/06/13 05:58:59;;;;;;;6.70;4.10;;;16.60;99.90;;;;;;5052377;28;20494;-69
2021/06/13 06:01:27;;;;;;;5.20;4.07;;;16.60;99.90;;;;;;5052369;28;20470;-69
2021/06/13 06:03:54;;;;;;;7.23;3.90;;;16.70;99.90;;;;;;5051888;28;20483;-68
2021/06/13 06:06:21;;;;;;;5.70;3.47;;;16.70;99.90;;;;;;5052693;28;20800;-69
2021/06/13 06:08:47;;;;;;;5.30;3.73;;;16.80;99.90;;;;;;5051965;28;20470;-69
2021/06/13 06:11:14;;;;;;;5.37;3.87;;;16.80;99.90;;;;;;5052173;28;20947;-68
2021/06/13 06:13:41;;;;;;;3.87;3.47;;;16.90;99.90;;;;;;5052313;28;21068;-68
2021/06/13 06:16:07;;;;;;;5.50;3.30;;;17.00;99.90;;;;;;5052220;28;20478;-69
2021/06/13 06:18:35;;;;;;;4.93;3.33;;;17.00;99.90;;;;;;5060918;28;20478;-70
2021/06/13 06:21:02;;;;;;;5.50;3.60;;;17.10;99.90;;;;;;5060157;28;20717;-69
2021/06/13 06:23:29;;;;;;;4.80;3.87;;;17.10;99.90;;;;;;5059933;28;20474;-68
2021/06/13 06:25:56;;;;;;;4.47;4.07;;;17.10;99.90;;;;;;5059728;28;20462;-70
2021/06/13 06:28:22;;;;;;;4.70;3.50;;;17.20;99.90;;;;;;5060884;28;20455;-69
2021/06/13 06:30:49;;;;;;;5.10;3.83;;;17.20;99.90;;;;;;5062026;28;20455;-69
2021/06/13 06:33:16;;;;;;;5.30;3.83;;;17.30;99.90;;;;;;5060474;28;20839;-69
2021/06/13 06:35:44;;;;;;;3.73;3.40;;;17.30;99.90;;;;;;5061496;28;20680;-69
2021/06/13 06:38:10;;;;;;;6.27;3.43;;;17.30;99.90;;;;;;5061880;28;20487;-69
2021/06/13 06:40:37;;;;;;;4.10;3.40;;;17.40;99.90;;;;;;5060630;28;20467;-69
2021/06/13 06:43:04;;;;;;;4.67;3.97;;;17.40;99.90;;;;;;5060492;28;20989;-69
2021/06/13 06:45:31;;;;;;;4.77;3.87;;;17.50;99.90;;;;;;5061882;28;20458;-69
2021/06/13 06:47:57;;;;;;;4.90;3.80;;;17.50;99.90;;;;;;5060616;28;20462;-70
2021/06/13 06:50:24;;;;;;;6.13;4.17;;;17.60;99.90;;;;;;5065304;28;20478;-69
2021/06/13 06:52:52;;;;;;;5.30;3.90;;;17.70;99.90;;;;;;5059702;28;20471;-69
2021/06/13 06:55:20;;;;;;;5.43;3.83;;;17.80;99.90;;;;;;5060558;28;20942;-69
2021/06/13 06:57:47;;;;;;;6.27;3.60;;;17.90;99.90;;;;;;5061069;28;20458;-69
2021/06/13 07:00:17;;;;;;;6.70;3.97;;;18.00;99.90;;;;;;5059760;28;20455;-70
2021/06/13 07:02:44;;;;;;;6.70;3.50;;;18.00;99.90;;;;;;5058386;28;20474;-68
2021/06/13 07:05:12;;;;;;;6.13;3.53;;;18.10;99.90;;;;;;5059055;28;20974;-69
2021/06/13 07:07:39;;;;;;;4.43;3.63;;;18.10;99.90;;;;;;5059348;28;20827;-70
2021/06/13 07:10:07;;;;;;;4.90;3.67;;;18.10;99.90;;;;;;5060721;28;20463;-69
2021/06/13 07:12:34;;;;;;;8.13;3.70;;;18.20;99.90;;;;;;5059305;28;20486;-70
2021/06/13 07:15:01;;;;;;;7.27;3.87;;;18.10;99.90;;;;;;5059110;28;20454;-69
2021/06/13 07:17:28;;;;;;;4.10;3.60;;;18.20;99.90;;;;;;5061511;28;20550;-69
2021/06/13 07:19:54;;;;;;;5.60;3.30;;;18.30;99.90;;;;;;5058958;28;20486;-70
2021/06/13 07:22:23;;;;;;;7.10;4.23;;;18.40;99.90;;;;;;5061289;28;20986;-70
2021/06/13 07:24:52;;;;;;;6.87;3.90;;;18.40;99.90;;;;;;5069649;28;20458;-68
2021/06/13 07:27:20;;;;;;;5.13;3.63;;;18.40;99.90;;;;;;5070195;28;20466;-70
2021/06/13 07:29:47;;;;;;;4.07;3.67;;;18.30;99.90;;;;;;5070061;28;20466;-70
2021/06/13 07:32:13;;;;;;;3.63;3.33;;;18.30;99.90;;;;;;5056372;28;21006;-70
2021/06/13 07:34:40;;;;;;;5.57;3.60;;;18.40;99.90;;;;;;5050009;28;20462;-69
2021/06/13 07:37:07;;;;;;;4.60;3.47;;;18.40;99.90;;;;;;5049340;28;20494;-72
2021/06/13 07:39:34;;;;;;;4.87;3.67;;;18.40;99.90;;;;;;5049990;28;20610;-72
2021/06/13 07:42:01;;;;;;;5.97;4.20;;;18.50;99.90;;;;;;5048905;28;20461;-71
2021/06/13 07:44:30;;;;;;;4.53;3.77;;;18.50;99.90;;;;;;5049547;28;20462;-70
2021/06/13 07:46:59;;;;;;;3.60;3.30;;;18.60;99.90;;;;;;5049554;28;20467;-72
2021/06/13 07:49:26;;;;;;;5.67;3.73;;;18.60;99.90;;;;;;5049474;28;20451;-71
2021/06/13 07:51:53;;;;;;;8.83;4.30;;;18.70;99.90;;;;;;5049344;28;20840;-71
2021/06/13 07:54:20;;;;;;;3.50;3.17;;;18.80;99.90;;;;;;5049877;28;20467;-70
2021/06/13 07:56:46;;;;;;;5.20;4.17;;;18.80;99.90;;;;;;5049190;28;20871;-70
2021/06/13 07:59:13;;;;;;;10.37;4.80;;;18.80;99.90;;;;;;5049946;28;20490;-71
2021/06/13 08:01:41;;;;;;;5.40;4.00;;;18.90;99.90;;;;;;5049319;28;20474;-70
2021/06/13 08:04:08;;;;;;;6.30;3.80;;;19.00;99.90;;;;;;5055809;28;20475;-70
2021/06/13 08:06:35;;;;;;;5.23;3.70;;;19.00;99.90;;;;;;5069693;28;20814;-70
2021/06/13 08:09:01;;;;;;;7.93;3.63;;;19.00;99.90;;;;;;5069410;28;20469;-69
2021/06/13 08:11:30;;;;;;;6.00;3.90;;;19.10;99.90;;;;;;5067761;28;20458;-70
2021/06/13 08:13:56;;;;;;;6.33;4.00;;;19.10;99.90;;;;;;5062806;28;20477;-70
2021/06/13 08:16:23;;;;;;;8.43;4.03;;;19.20;99.90;;;;;;5070944;28;20458;-70
2021/06/13 08:18:52;;;;;;;6.80;3.90;;;19.20;99.90;;;;;;5070081;28;20482;-69
2021/06/13 08:21:19;;;;;;;4.50;3.70;;;19.20;99.90;;;;;;5069917;28;20459;-68
2021/06/13 08:23:46;;;;;;;5.37;4.00;;;19.20;99.90;;;;;;5067709;28;20489;-69
2021/06/13 08:26:13;;;;;;;6.10;3.67;;;19.30;99.90;;;;;;5069557;28;20501;-70
2021/06/13 08:28:40;;;;;;;6.00;4.37;;;19.40;99.90;;;;;;5070278;28;20457;-70
2021/06/13 08:31:07;;;;;;;7.53;3.73;;;19.50;99.90;;;;;;5069236;28;20853;-69
2021/06/13 08:33:34;;;;;;;4.00;3.60;;;19.50;99.90;;;;;;5069926;28;20494;-69
2021/06/13 08:36:02;;;;;;;4.50;4.07;;;19.70;99.90;;;;;;5069786;28;20465;-69
2021/06/13 08:38:29;;;;;;;7.30;3.47;;;19.70;99.90;;;;;;5069605;28;20463;-69
2021/06/13 08:40:55;;;;;;;4.53;3.40;;;19.70;99.90;;;;;;5069567;28;20473;-68
2021/06/13 08:43:22;;;;;;;6.60;3.83;;;19.60;99.90;;;;;;5069689;28;20512;-69
2021/06/13 08:45:50;;;;;;;4.13;3.23;;;19.70;99.90;;;;;;5069494;28;20465;-69
2021/06/13 08:48:17;;;;;;;6.93;3.20;;;19.70;99.90;;;;;;5069939;28;20458;-70
2021/06/13 08:50:44;;;;;;;6.47;3.40;;;19.70;99.90;;;;;;5069237;28;20842;-70
2021/06/13 08:53:12;;;;;;;5.13;3.30;;;19.80;99.90;;;;;;5070435;28;20486;-70
2021/06/13 08:55:39;;;;;;;3.77;3.10;;;19.80;99.90;;;;;;5073341;28;21016;-69
2021/06/13 08:58:08;;;;;;;6.00;4.13;;;19.80;99.90;;;;;;5073435;28;20980;-70
2021/06/13 09:00:35;;;;;;;7.10;3.67;;;19.90;99.90;;;;;;5073422;28;21075;-69
2021/06/13 09:03:05;;;;;;;3.93;3.30;;;19.90;99.90;;;;;;5072734;28;20497;-69
2021/06/13 09:05:32;;;;;;;5.10;3.40;;;20.10;99.90;;;;;;5073514;28;20459;-69
2021/06/13 09:08:00;;;;;;;4.10;3.27;;;20.10;99.90;;;;;;5072780;28;20539;-70
2021/06/13 09:10:31;;;;;;;4.63;3.20;;;20.20;99.90;;;;;;5073504;28;20450;-69
2021/06/13 09:13:16;;;;;;;10.73;3.40;;;20.30;99.90;;;;;;5072846;28;20489;-69
2021/06/13 09:15:46;;;;;;;6.10;3.60;;;20.50;99.90;;;;;;5072959;28;20466;-69
2021/06/13 09:18:36;;;;;;;4.70;3.60;;;20.60;99.90;;;;;;5073298;28;20462;-69
2021/06/13 09:21:05;;;;;;;6.17;3.20;;;20.50;99.90;;;;;;5072369;28;20462;-70
2021/06/13 09:23:35;;;;;;;5.07;3.47;;;20.50;99.90;;;;;;5072951;28;20481;-70
2021/06/13 09:26:05;;;;;;;4.60;4.13;;;20.50;99.90;;;;;;5072371;28;20458;-68
2021/06/13 09:28:33;;;;;;;4.80;3.43;;;20.60;99.90;;;;;;5061690;28;20451;-68
2021/06/13 09:31:01;;;;;;;6.37;3.60;;;20.60;99.90;;;;;;5061229;28;20454;-69
2021/06/13 09:33:30;;;;;;;4.60;3.70;;;20.70;99.90;;;;;;5060174;28;20483;-68
2021/06/13 09:35:58;;;;;;;4.33;3.60;;;20.80;99.90;;;;;;5061698;28;20462;-68
2021/06/13 09:38:26;;;;;;;4.80;3.10;;;21.00;99.90;;;;;;5062660;28;20450;-69
2021/06/13 09:41:00;;;;;;;3.63;3.33;;;21.10;99.90;;;;;;5060265;28;20973;-67
2021/06/13 09:43:33;;;;;;;4.80;3.57;;;21.20;99.90;;;;;;5063218;28;20555;-68
2021/06/13 09:46:08;;;;;;;6.90;3.70;;;21.30;99.90;;;;;;5062700;28;20466;-67
2021/06/13 09:48:37;;;;;;;4.43;3.23;;;21.40;99.90;;;;;;5070856;28;20461;-68
2021/06/13 09:51:06;;;;;;;4.20;3.53;;;21.50;99.90;;;;;;5070718;28;20458;-68
2021/06/13 09:53:39;;;;;;;5.00;3.07;;;21.50;99.90;;;;;;5072361;28;20484;-67
2021/06/13 09:56:09;;;;;;;3.90;2.87;;;21.50;99.90;;;;;;5065706;28;20463;-68
2021/06/13 09:58:47;;;;;;;5.43;3.20;;;21.50;99.90;;;;;;5060504;28;20461;-67
2021/06/13 10:01:14;;;;;;;3.80;3.10;;;21.60;99.90;;;;;;5060510;28;20450;-67
2021/06/13 10:03:41;;;;;;;3.77;2.50;;;21.50;99.90;;;;;;5062010;28;20478;-68
2021/06/13 10:06:09;;;;;;;3.70;3.30;;;21.60;99.90;;;;;;5066162;28;21067;-67
2021/06/13 10:08:37;;;;;;;3.27;2.97;;;21.70;99.90;;;;;;5061991;28;20459;-68
2021/06/13 10:11:06;;;;;;;5.13;3.27;;;21.90;99.90;;;;;;5052044;28;20466;-68
2021/06/13 10:13:43;;;;;;;4.07;3.67;;;21.90;99.90;;;;;;5052265;28;20494;-68
2021/06/13 10:16:11;;;;;;;4.10;3.67;;;22.00;99.90;;;;;;5051789;28;20470;-68
2021/06/13 10:18:40;;;;;;;4.47;3.10;;;22.00;99.90;;;;;;5050708;28;20459;-67
2021/06/13 10:21:11;;;;;;;6.03;3.30;;;22.10;99.90;;;;;;5050502;28;20995;-67
2021/06/13 10:23:40;;;;;;;5.03;3.10;;;22.00;99.90;;;;;;5052168;28;20475;-68
2021/06/13 10:26:08;;;;;;;5.27;3.80;;;22.00;99.90;;;;;;5051404;28;20460;-68
2021/06/13 10:28:35;;;;;;;5.63;3.30;;;22.00;99.90;;;;;;5051322;28;20451;-69
2021/06/13 10:31:04;;;;;;;5.00;3.13;;;22.10;99.90;;;;;;5051439;28;20467;-68
2021/06/13 10:33:32;;;;;;;4.60;3.30;;;22.20;99.90;;;;;;5051347;28;21005;-69
2021/06/13 10:36:01;;;;;;;4.23;3.20;;;22.30;99.90;;;;;;5051346;28;20461;-69
2021/06/13 10:38:29;;;;;;;5.63;2.97;;;22.40;99.90;;;;;;5051793;28;20473;-70
2021/06/13 10:40:57;;;;;;;3.67;2.77;;;22.50;99.90;;;;;;5050684;28;20537;-69
2021/06/13 10:43:25;;;;;;;5.00;3.00;;;22.60;99.90;;;;;;5051690;28;20511;-69
2021/06/13 10:45:53;;;;;;;2.87;2.57;;;22.70;99.90;;;;;;5050665;28;20455;-70
2021/06/13 10:48:21;;;;;;;5.63;2.90;;;22.60;99.90;;;;;;5051425;28;20809;-69
2021/06/13 10:50:48;;;;;;;3.13;2.83;;;22.70;99.90;;;;;;5050842;28;20967;-69
2021/06/13 10:53:15;;;;;;;3.03;2.47;;;22.70;99.90;;;;;;5050994;28;20486;-69
2021/06/13 10:55:53;;;;;;;2.37;2.17;;;22.80;99.90;;;;;;5051150;28;20467;-69
2021/06/13 10:58:45;;;;;;;3.57;2.90;;;22.80;99.90;;;;;;5050618;28;20465;-69
2021/06/13 11:01:25;;;;;;;3.30;2.80;;;22.80;99.90;;;;;;5050724;28;21034;-69
2021/06/13 11:04:05;;;;;;;3.33;2.90;;;22.90;99.90;;;;;;5050537;28;20539;-69
2021/06/13 11:06:45;;;;;;;6.13;3.17;;;22.90;99.90;;;;;;5051374;28;20813;-68
2021/06/13 11:09:14;;;;;;;4.00;2.67;;;23.00;99.90;;;;;;5050509;28;21040;-69
2021/06/13 11:11:43;;;;;;;4.90;3.00;;;23.00;99.90;;;;;;5051253;28;20554;-68
2021/06/13 11:14:24;;;;;;;2.90;2.70;;;22.90;99.90;;;;;;5059639;28;21033;-69
2021/06/13 11:16:51;;;;;;;5.87;2.50;;;23.00;99.90;;;;;;5065226;28;20500;-69
2021/06/13 11:19:30;;;;;;;4.87;2.90;;;23.00;99.90;;;;;;5070650;28;20454;-69
2021/06/13 11:22:40;;;;;;;3.33;2.23;;;23.00;99.90;;;;;;5070010;28;20552;-68
2021/06/13 11:25:19;;;;;;;4.70;2.60;;;23.00;98.00;;;;;;5052112;28;20465;-69
2021/06/13 11:28:10;;;;;;;7.90;2.73;;;23.30;99.50;;;;;;5070325;28;20485;-69
2021/06/13 11:30:40;;;;;;;4.70;2.50;;;23.40;99.90;;;;;;5071041;28;20600;-69
2021/06/13 11:33:08;;;;;;;3.83;2.67;;;23.50;99.90;;;;;;5070015;28;20520;-69
2021/06/13 11:35:45;;;;;;;6.30;3.17;;;23.60;99.90;;;;;;5070131;28;20460;-69
2021/06/13 11:38:29;;;;;;;3.37;2.17;;;23.80;97.80;;;;;;5070666;28;20958;-68
2021/06/13 11:40:58;;;;;;;3.07;2.50;;;23.80;98.90;;;;;;5069539;28;21119;-69
2021/06/13 11:43:31;;;;;;;3.80;2.93;;;23.90;99.90;;;;;;5070470;28;20486;-69
2021/06/13 11:46:00;;;;;;;4.87;3.13;;;23.90;99.90;;;;;;5070228;28;20481;-69
2021/06/13 11:48:29;;;;;;;4.00;2.80;;;24.00;99.90;;;;;;5070676;28;20523;-69
2021/06/13 11:51:12;;;;;;;2.90;2.60;;;24.10;99.00;;;;;;5070098;28;20538;-69
2021/06/13 11:53:57;;;;;;;5.13;2.73;;;24.20;98.20;;;;;;5068908;28;20484;-69
2021/06/13 11:56:41;;;;;;;3.47;2.80;;;24.20;98.30;;;;;;5068394;28;20462;-68
2021/06/13 11:59:14;;;;;;;3.30;3.00;;;24.10;96.80;;;;;;5066256;28;20458;-69
2021/06/13 12:01:42;;;;;;;2.27;2.07;;;24.10;98.20;;;;;;5070237;28;20482;-69
2021/06/13 12:04:13;;;;;;;3.57;2.60;;;24.20;98.80;;;;;;5067816;28;20539;-69
2021/06/13 12:06:41;;;;;;;2.50;2.30;;;24.30;98.20;;;;;;5068729;28;20473;-68
2021/06/13 12:09:10;;;;;;;2.73;2.40;;;24.50;97.40;;;;;;5061301;28;20533;-69
2021/06/13 12:11:39;;;;;;;3.50;2.20;;;24.70;97.90;;;;;;5069096;28;20463;-67
2021/06/13 12:14:17;;;;;;;2.90;2.40;;;24.80;97.80;;;;;;5070174;28;20474;-69
2021/06/13 12:16:44;;;;;;;7.00;3.13;;;24.80;97.90;;;;;;5070066;28;20469;-68
2021/06/13 12:19:12;;;;;;;2.67;2.30;;;24.90;97.70;;;;;;5070276;28;20557;-69
2021/06/13 12:21:40;;;;;;;2.53;2.00;;;24.90;97.30;;;;;;5069860;28;20482;-69
2021/06/13 12:24:32;;;;;;;3.83;2.17;;;25.00;98.40;;;;;;5069326;28;20501;-69
2021/06/13 12:27:24;;;;;;;3.40;2.50;;;25.10;97.00;;;;;;5062486;28;20480;-69
2021/06/13 12:29:51;;;;;;;2.83;2.20;;;25.10;95.70;;;;;;5072513;28;20569;-68
2021/06/13 12:32:18;;;;;;;2.30;2.10;;;25.30;96.00;;;;;;5073455;28;20497;-69
2021/06/13 12:34:52;;;;;;;2.23;2.03;;;25.30;94.70;;;;;;5073385;28;21059;-68
2021/06/13 12:37:21;;;;;;;2.50;2.30;;;25.20;95.10;;;;;;5073902;28;20508;-68
2021/06/13 12:39:57;;;;;;;4.53;1.97;;;25.20;94.60;;;;;;5073500;28;20458;-69
2021/06/13 12:42:24;;;;;;;2.30;1.90;;;25.10;93.50;;;;;;5073220;28;20607;-70
2021/06/13 12:45:00;;;;;;;6.30;2.00;;;25.10;92.80;;;;;;5073845;28;21147;-69
2021/06/13 12:47:28;;;;;;;2.30;2.00;;;25.30;92.90;;;;;;5073586;28;20462;-69
2021/06/13 12:49:57;;;;;;;3.50;2.20;;;25.50;93.80;;;;;;5073664;28;20458;-69
2021/06/13 12:52:26;;;;;;;3.03;2.03;;;25.50;94.30;;;;;;5073532;28;20505;-69
2021/06/13 12:54:58;;;;;;;2.70;1.97;;;25.50;94.00;;;;;;5073002;28;20859;-69
2021/06/13 12:57:25;;;;;;;6.73;2.50;;;25.50;93.70;;;;;;5073409;28;20466;-69